Terminal Aerodrome Forecast
Issued by NWS Springfield, MO

Home | Current Version | Previous Version | Text Only | Print | Product List | Glossary On
Versions: 1 2 3 4 5 6 7 8 9 10 11 12
000
FTUS43 KSGF 231100
TAFSGF
TAF
KSGF 231120Z 2312/2412 VRB03KT 6SM BR SCT050 SCT250
     FM231400 36005KT P6SM SCT050 SCT100
     FM231800 03010KT P6SM SCT050
     FM240200 06005KT P6SM SKC=

USA.gov is the U.S. government's official web portal to all federal, state and local government web resources and services.